createdAt,value
2019-03-26T00:00:35.755Z,5.13
2019-03-26T00:03:05.494Z,4.20
2019-03-26T00:05:38.113Z,4.30
2019-03-26T00:08:08.827Z,3.63
2019-03-26T00:10:38.399Z,3.70
2019-03-26T00:13:08.030Z,4.33
2019-03-26T00:15:37.387Z,3.73
2019-03-26T00:18:06.783Z,4.10
2019-03-26T00:20:36.255Z,4.43
2019-03-26T00:23:05.939Z,3.60
2019-03-26T00:25:36.694Z,4.33
2019-03-26T00:28:06.356Z,3.73
2019-03-26T00:30:35.720Z,4.33
2019-03-26T00:33:05.478Z,4.65
2019-03-26T00:35:36.387Z,3.80
2019-03-26T00:38:06.030Z,3.00
2019-03-26T00:40:35.481Z,3.90
2019-03-26T00:43:05.092Z,3.70
2019-03-26T00:45:34.467Z,3.67
2019-03-26T00:48:05.121Z,3.60
2019-03-26T00:50:34.494Z,4.13
2019-03-26T00:53:05.182Z,3.60
2019-03-26T00:55:34.579Z,4.30
2019-03-26T00:58:04.241Z,4.05
2019-03-26T01:00:38.670Z,4.10
2019-03-26T01:03:08.350Z,4.08
2019-03-26T01:05:37.785Z,3.20
2019-03-26T01:08:07.445Z,2.90
2019-03-26T01:10:36.826Z,4.50
2019-03-26T01:13:06.485Z,3.97
2019-03-26T01:15:37.480Z,4.60
2019-03-26T01:18:07.615Z,3.33
2019-03-26T01:20:37.531Z,4.35
2019-03-26T01:23:07.650Z,3.70
2019-03-26T01:25:39.502Z,4.13
2019-03-26T01:28:08.388Z,4.55
2019-03-26T01:30:37.744Z,5.03
2019-03-26T01:33:07.097Z,3.52
2019-03-26T01:35:37.401Z,4.47
2019-03-26T01:38:06.822Z,5.60
2019-03-26T01:40:36.434Z,3.53
2019-03-26T01:43:06.200Z,3.80
2019-03-26T01:45:35.578Z,4.23
2019-03-26T01:48:04.958Z,4.90
2019-03-26T01:50:34.127Z,4.93
2019-03-26T01:53:03.861Z,5.90
2019-03-26T01:55:33.543Z,3.83
2019-03-26T01:58:02.915Z,3.83
2019-03-26T02:00:32.288Z,5.30
2019-03-26T02:03:02.862Z,4.53
2019-03-26T02:05:32.536Z,4.55
2019-03-26T02:08:02.991Z,3.70
2019-03-26T02:10:32.882Z,5.37
2019-03-26T02:13:03.144Z,3.33
2019-03-26T02:15:33.654Z,3.27
2019-03-26T02:18:03.103Z,3.10
2019-03-26T02:20:32.636Z,3.60
2019-03-26T02:23:03.031Z,3.25
2019-03-26T02:25:32.616Z,3.10
2019-03-26T02:28:02.983Z,4.12
2019-03-26T02:30:32.603Z,2.63
2019-03-26T02:33:03.281Z,4.22
2019-03-26T02:35:32.776Z,4.87
2019-03-26T02:38:03.291Z,4.08
2019-03-26T02:40:32.673Z,2.90
2019-03-26T02:43:03.019Z,4.03
2019-03-26T02:45:32.563Z,4.37
2019-03-26T02:48:03.092Z,3.80
2019-03-26T02:50:33.752Z,3.80
2019-03-26T02:53:03.122Z,2.73
2019-03-26T02:55:32.609Z,3.10
2019-03-26T02:58:02.979Z,3.42
2019-03-26T03:00:32.641Z,3.07
2019-03-26T03:03:04.131Z,3.20
2019-03-26T03:05:36.114Z,3.60
2019-03-26T03:08:05.048Z,3.67
2019-03-26T03:10:35.988Z,3.00
2019-03-26T03:13:05.865Z,3.02
2019-03-26T03:15:35.516Z,4.10
2019-03-26T03:18:05.086Z,2.40
2019-03-26T03:20:34.735Z,4.05
2019-03-26T03:23:04.107Z,3.93
2019-03-26T03:25:34.516Z,3.67
2019-03-26T03:28:04.186Z,3.23
2019-03-26T03:30:33.973Z,4.10
2019-03-26T03:33:03.344Z,3.27
2019-03-26T03:35:32.877Z,2.70
2019-03-26T03:38:02.245Z,3.57
2019-03-26T03:40:31.900Z,2.83
2019-03-26T03:43:01.270Z,3.50
2019-03-26T03:45:31.191Z,3.93
2019-03-26T03:48:01.327Z,3.00
2019-03-26T03:50:31.161Z,3.90
2019-03-26T03:53:00.784Z,3.83
2019-03-26T03:55:31.002Z,3.17
2019-03-26T03:58:02.149Z,3.60
2019-03-26T04:00:34.588Z,3.60
2019-03-26T04:03:04.986Z,2.90
2019-03-26T04:05:34.703Z,3.33
2019-03-26T04:08:04.386Z,3.20
2019-03-26T04:10:34.218Z,3.00
2019-03-26T04:13:03.880Z,3.70
2019-03-26T04:15:37.092Z,2.10
2019-03-26T04:18:07.318Z,4.20
2019-03-26T04:20:37.004Z,3.77
2019-03-26T04:23:06.394Z,4.10
2019-03-26T04:25:36.182Z,2.50
2019-03-26T04:28:05.876Z,3.97
2019-03-26T04:30:35.300Z,2.73
2019-03-26T04:33:06.268Z,3.45
2019-03-26T04:35:35.926Z,2.80
2019-03-26T04:38:05.290Z,3.30
2019-03-26T04:40:35.243Z,2.87
2019-03-26T04:43:04.968Z,3.02
2019-03-26T04:45:34.381Z,2.30
2019-03-26T04:48:04.114Z,3.70
2019-03-26T04:50:33.790Z,3.03
2019-03-26T04:53:03.344Z,3.63
2019-03-26T04:55:34.360Z,3.80
2019-03-26T04:58:04.023Z,2.97
2019-03-26T05:00:33.384Z,4.27
2019-03-26T05:03:03.048Z,4.00
2019-03-26T05:05:32.398Z,3.50
2019-03-26T05:08:03.416Z,3.95
2019-03-26T05:10:33.766Z,3.50
2019-03-26T05:13:04.953Z,3.60
2019-03-26T05:15:34.586Z,4.70
2019-03-26T05:18:04.301Z,3.67
2019-03-26T05:20:33.974Z,4.50
2019-03-26T05:23:03.324Z,3.90
2019-03-26T05:25:33.037Z,3.30
2019-03-26T05:28:03.300Z,3.05
2019-03-26T05:30:33.359Z,1.60
2019-03-26T05:33:03.404Z,3.85
2019-03-26T05:35:33.115Z,4.85
2019-03-26T05:38:03.475Z,3.95
2019-03-26T05:40:33.098Z,3.67
2019-03-26T05:43:03.459Z,1.75
2019-03-26T05:45:33.808Z,4.60
2019-03-26T05:48:03.590Z,3.30
2019-03-26T05:50:33.098Z,3.50
2019-03-26T05:53:03.417Z,3.40
2019-03-26T05:55:33.089Z,3.10
2019-03-26T05:58:03.509Z,3.95
2019-03-26T06:00:33.219Z,3.00
2019-03-26T06:03:03.455Z,4.70
2019-03-26T06:05:33.337Z,3.70
2019-03-26T06:08:04.037Z,3.45
2019-03-26T06:10:33.471Z,2.93
2019-03-26T06:13:03.518Z,2.42
2019-03-26T06:15:33.241Z,4.20
2019-03-26T06:18:03.458Z,3.55
2019-03-26T06:20:33.130Z,3.17
2019-03-26T06:23:03.564Z,4.10
2019-03-26T06:25:33.484Z,3.93
2019-03-26T06:28:03.609Z,3.08
2019-03-26T06:30:33.329Z,3.60
2019-03-26T06:33:03.837Z,3.20
2019-03-26T06:35:33.244Z,2.97
2019-03-26T06:38:03.585Z,4.95
2019-03-26T06:40:33.202Z,3.20
2019-03-26T06:43:03.730Z,3.85
2019-03-26T06:45:33.270Z,3.13
2019-03-26T06:48:04.467Z,3.43
2019-03-26T06:50:34.206Z,1.80
2019-03-26T06:53:03.584Z,2.97
2019-03-26T06:55:33.227Z,2.00
2019-03-26T06:58:03.562Z,4.37
2019-03-26T07:00:34.166Z,4.15
2019-03-26T07:03:05.590Z,3.03
2019-03-26T07:05:34.958Z,4.10
2019-03-26T07:08:04.595Z,1.70
2019-03-26T07:10:34.232Z,2.80
2019-03-26T07:13:03.611Z,2.60
2019-03-26T07:15:34.897Z,2.12
2019-03-26T07:18:04.607Z,3.00
2019-03-26T07:20:34.692Z,1.60
2019-03-26T07:23:04.356Z,3.33
2019-03-26T07:25:33.702Z,3.27
2019-03-26T07:28:03.809Z,2.08
2019-03-26T07:30:38.541Z,3.43
2019-03-26T07:33:08.255Z,2.10
2019-03-26T07:35:37.752Z,2.30
2019-03-26T07:38:07.278Z,2.45
2019-03-26T07:40:36.984Z,2.60
2019-03-26T07:43:07.119Z,3.03
2019-03-26T07:45:37.043Z,2.20
2019-03-26T07:48:06.825Z,2.70
2019-03-26T07:50:38.848Z,2.77
2019-03-26T07:53:08.836Z,1.80
2019-03-26T07:55:39.604Z,1.43
2019-03-26T07:58:09.593Z,3.08
2019-03-26T08:00:39.139Z,3.03
2019-03-26T08:03:09.825Z,2.50
2019-03-26T08:05:39.397Z,2.33
2019-03-26T08:08:08.795Z,2.53
2019-03-26T08:10:39.905Z,2.33
2019-03-26T08:13:09.650Z,2.70
2019-03-26T08:15:39.014Z,2.33
2019-03-26T08:18:08.655Z,2.05
2019-03-26T08:20:38.332Z,2.60
2019-03-26T08:23:07.704Z,1.87
2019-03-26T08:25:37.602Z,2.77
2019-03-26T08:28:07.555Z,1.90
2019-03-26T08:30:36.902Z,3.07
2019-03-26T08:33:06.610Z,2.13
2019-03-26T08:35:36.208Z,1.77
2019-03-26T08:38:13.032Z,2.57
2019-03-26T08:40:38.607Z,1.50
2019-03-26T08:43:07.969Z,2.10
2019-03-26T08:45:38.812Z,2.50
2019-03-26T08:48:08.458Z,1.98
2019-03-26T08:50:37.831Z,2.63
2019-03-26T08:53:07.478Z,2.63
2019-03-26T08:55:36.859Z,2.20
2019-03-26T08:58:06.529Z,2.85
2019-03-26T09:00:35.877Z,2.10
2019-03-26T09:03:05.971Z,3.20
2019-03-26T09:05:36.930Z,3.40
2019-03-26T09:08:08.563Z,2.12
2019-03-26T09:10:46.633Z,2.30
2019-03-26T09:13:09.273Z,3.13
2019-03-26T09:15:38.683Z,2.00
2019-03-26T09:18:08.051Z,2.50
2019-03-26T09:20:37.867Z,2.70
2019-03-26T09:23:07.549Z,2.58
2019-03-26T09:25:38.388Z,2.10
2019-03-26T09:28:07.787Z,2.72
2019-03-26T09:30:37.479Z,2.10
2019-03-26T09:33:07.157Z,2.57
2019-03-26T09:35:41.878Z,1.30
2019-03-26T09:38:11.553Z,2.40
2019-03-26T09:40:40.922Z,1.50
2019-03-26T09:43:10.647Z,2.50
2019-03-26T09:45:40.007Z,2.40
2019-03-26T09:48:09.656Z,2.15
2019-03-26T09:50:39.036Z,1.30
2019-03-26T09:53:08.724Z,1.15
2019-03-26T09:55:38.136Z,1.63
2019-03-26T09:58:07.931Z,2.15
2019-03-26T10:00:37.360Z,2.60
2019-03-26T10:03:08.694Z,2.07
2019-03-26T10:05:38.060Z,1.97
2019-03-26T10:08:07.722Z,2.60
2019-03-26T10:10:37.968Z,2.47
2019-03-26T10:13:07.925Z,1.80
2019-03-26T10:15:39.212Z,2.73
2019-03-26T10:18:08.873Z,1.95
2019-03-26T10:20:40.163Z,1.60
2019-03-26T10:23:09.912Z,2.30
2019-03-26T10:25:39.549Z,1.75
2019-03-26T10:28:09.207Z,2.70
2019-03-26T10:30:39.740Z,2.00
2019-03-26T10:33:09.617Z,2.30
2019-03-26T10:35:38.969Z,1.67
2019-03-26T10:38:08.738Z,2.10
2019-03-26T10:40:39.194Z,1.53
2019-03-26T10:43:10.147Z,2.03
2019-03-26T10:45:39.801Z,1.72
2019-03-26T10:48:09.163Z,1.93
2019-03-26T10:50:38.794Z,2.17
2019-03-26T10:53:08.170Z,2.13
2019-03-26T10:55:37.765Z,1.90
2019-03-26T10:58:07.431Z,1.90
2019-03-26T11:00:36.987Z,2.60
2019-03-26T11:03:06.179Z,2.00
2019-03-26T11:05:35.880Z,1.20
2019-03-26T11:08:07.128Z,1.80
2019-03-26T11:10:36.804Z,5.25
2019-03-26T11:13:06.239Z,3.60
2019-03-26T11:15:37.185Z,2.70
2019-03-26T11:18:06.901Z,5.55
2019-03-26T11:20:36.279Z,1.37
2019-03-26T11:23:05.925Z,1.37
2019-03-26T11:25:35.366Z,1.50
2019-03-26T11:28:05.030Z,1.63
2019-03-26T11:30:34.387Z,1.93
2019-03-26T11:33:04.530Z,2.40
2019-03-26T11:35:33.981Z,1.20
2019-03-26T11:38:04.264Z,1.87
2019-03-26T11:40:33.982Z,1.60
2019-03-26T11:43:04.316Z,1.40
2019-03-26T11:45:34.022Z,1.00
2019-03-26T11:48:04.357Z,1.20
2019-03-26T11:50:34.628Z,2.07
2019-03-26T11:53:04.462Z,1.57
2019-03-26T11:55:33.891Z,1.37
2019-03-26T11:58:04.415Z,1.30
2019-03-26T12:00:35.982Z,0.90
2019-03-26T12:03:05.449Z,1.30
2019-03-26T12:05:34.973Z,1.07
2019-03-26T12:08:04.378Z,1.30
2019-03-26T12:10:34.968Z,1.40
2019-03-26T12:13:04.403Z,2.47
2019-03-26T12:15:34.066Z,1.90
2019-03-26T12:18:04.459Z,1.95
2019-03-26T12:20:34.127Z,2.70
2019-03-26T12:23:04.535Z,2.20
2019-03-26T12:25:34.098Z,2.10
2019-03-26T12:28:05.255Z,1.60
2019-03-26T12:30:36.214Z,2.17
2019-03-26T12:33:06.319Z,2.20
2019-03-26T12:35:36.385Z,2.10
2019-03-26T12:38:18.866Z,2.13
2019-03-26T12:40:48.284Z,2.27
2019-03-26T12:43:17.715Z,2.23
2019-03-26T12:45:47.406Z,2.00
2019-03-26T12:48:19.132Z,2.40
2019-03-26T12:50:48.523Z,1.87
2019-03-26T12:53:18.147Z,2.55
2019-03-26T12:55:47.745Z,1.80
2019-03-26T12:58:30.648Z,2.22
2019-03-26T13:00:48.473Z,1.80
2019-03-26T13:03:18.164Z,1.90
2019-03-26T13:05:47.510Z,1.80
2019-03-26T13:08:17.160Z,1.80
2019-03-26T13:10:53.614Z,1.10
2019-03-26T13:13:17.866Z,1.47
2019-03-26T13:15:47.352Z,1.80
2019-03-26T13:18:17.693Z,1.83
2019-03-26T13:20:47.977Z,1.80
2019-03-26T13:23:18.232Z,1.40
2019-03-26T13:25:47.587Z,2.23
2019-03-26T13:28:17.603Z,0.90
2019-03-26T13:30:47.260Z,1.65
2019-03-26T13:33:16.767Z,1.57
2019-03-26T13:35:46.464Z,0.90
2019-03-26T13:38:16.129Z,1.40
2019-03-26T13:40:47.224Z,1.80
2019-03-26T13:43:16.891Z,1.80
2019-03-26T13:45:46.358Z,2.00
2019-03-26T13:48:15.837Z,1.13
2019-03-26T13:50:45.364Z,1.60
2019-03-26T13:53:14.710Z,1.70
2019-03-26T13:55:44.364Z,1.70
2019-03-26T13:58:14.007Z,1.57
2019-03-26T14:00:43.948Z,1.67
2019-03-26T14:03:13.585Z,1.60
2019-03-26T14:05:44.508Z,1.50
2019-03-26T14:08:14.184Z,1.37
2019-03-26T14:10:43.798Z,1.97
2019-03-26T14:13:14.530Z,1.98
2019-03-26T14:15:43.998Z,1.53
2019-03-26T14:18:14.592Z,1.70
2019-03-26T14:20:44.278Z,1.80
2019-03-26T14:23:13.821Z,1.53
2019-03-26T14:25:43.363Z,1.67
2019-03-26T14:28:13.308Z,1.67
2019-03-26T14:30:44.026Z,1.60
2019-03-26T14:33:13.753Z,2.00
2019-03-26T14:35:44.893Z,1.22
2019-03-26T14:38:14.598Z,2.15
2019-03-26T14:40:53.901Z,2.57
2019-03-26T14:43:15.056Z,1.40
2019-03-26T14:45:44.533Z,2.10
2019-03-26T14:48:14.242Z,2.40
2019-03-26T14:50:43.622Z,2.30
2019-03-26T14:53:12.973Z,2.60
2019-03-26T14:55:45.025Z,2.00
2019-03-26T14:58:14.553Z,2.80
2019-03-26T15:00:43.895Z,2.77
2019-03-26T15:03:13.555Z,3.37
2019-03-26T15:05:44.538Z,3.37
2019-03-26T15:08:13.951Z,3.17
2019-03-26T15:10:43.489Z,2.83
2019-03-26T15:13:12.834Z,2.37
2019-03-26T15:15:42.506Z,2.37
2019-03-26T15:18:11.866Z,2.00
2019-03-26T15:20:43.009Z,2.50
2019-03-26T15:23:12.671Z,2.90
2019-03-26T15:25:42.040Z,2.90
2019-03-26T15:28:12.142Z,2.77
2019-03-26T15:30:41.635Z,2.97
2019-03-26T15:33:11.245Z,3.00
2019-03-26T15:35:40.870Z,3.63
2019-03-26T15:38:10.515Z,3.42
2019-03-26T15:40:47.544Z,3.30
2019-03-26T15:43:17.193Z,3.07
2019-03-26T15:45:46.916Z,3.43
2019-03-26T15:48:16.819Z,3.58
2019-03-26T15:50:46.959Z,3.50
2019-03-26T15:53:16.838Z,3.80
2019-03-26T15:55:46.548Z,4.23
2019-03-26T15:58:16.192Z,3.73
2019-03-26T16:00:45.724Z,3.60
2019-03-26T16:03:16.987Z,4.10
2019-03-26T16:05:47.594Z,3.90
2019-03-26T16:08:18.497Z,3.70
2019-03-26T16:10:47.875Z,4.30
2019-03-26T16:13:17.516Z,3.90
2019-03-26T16:15:46.893Z,5.17
2019-03-26T16:18:16.536Z,3.50
2019-03-26T16:20:45.911Z,3.07
2019-03-26T16:23:15.268Z,3.25
2019-03-26T16:25:44.736Z,5.70
2019-03-26T16:28:14.167Z,4.60
2019-03-26T16:30:49.653Z,7.40
2019-03-26T16:33:19.011Z,3.70
2019-03-26T16:35:49.046Z,5.13
2019-03-26T16:38:18.697Z,4.30
2019-03-26T16:40:48.082Z,3.47
2019-03-26T16:43:17.780Z,4.40
2019-03-26T16:45:47.105Z,4.20
2019-03-26T16:48:16.798Z,3.98
2019-03-26T16:50:46.140Z,3.87
2019-03-26T16:53:15.907Z,4.20
2019-03-26T16:55:45.276Z,3.93
2019-03-26T16:58:14.731Z,3.70
2019-03-26T17:00:44.107Z,4.50
2019-03-26T17:03:15.850Z,2.98
2019-03-26T17:05:45.225Z,4.00
2019-03-26T17:08:15.218Z,4.30
2019-03-26T17:10:44.860Z,4.20
2019-03-26T17:13:14.522Z,3.63
2019-03-26T17:15:44.430Z,4.12
2019-03-26T17:18:13.913Z,4.70
2019-03-26T17:20:45.528Z,4.08
2019-03-26T17:23:15.174Z,3.65
2019-03-26T17:25:44.560Z,3.80
2019-03-26T17:28:15.111Z,4.60
2019-03-26T17:30:44.482Z,3.63
2019-03-26T17:33:14.204Z,4.63
2019-03-26T17:35:43.589Z,3.53
2019-03-26T17:38:13.248Z,3.70
2019-03-26T17:40:43.679Z,3.50
2019-03-26T17:43:14.771Z,5.17
2019-03-26T17:45:45.791Z,5.57
2019-03-26T17:48:15.415Z,3.90
2019-03-26T17:50:45.098Z,4.85
2019-03-26T17:53:14.455Z,5.57
2019-03-26T17:55:43.832Z,3.87
2019-03-26T17:58:14.356Z,4.03
2019-03-26T18:00:44.767Z,4.00
2019-03-26T18:03:25.826Z,3.80
2019-03-26T18:05:45.620Z,3.20
2019-03-26T18:08:15.323Z,2.42
2019-03-26T18:10:44.687Z,2.30
2019-03-26T18:13:14.278Z,1.93
2019-03-26T18:15:44.980Z,2.50
2019-03-26T18:18:15.454Z,2.03
2019-03-26T18:20:45.191Z,2.83
2019-03-26T18:23:14.548Z,1.90
2019-03-26T18:25:44.215Z,3.52
2019-03-26T18:28:13.609Z,3.13
2019-03-26T18:30:43.281Z,3.37
2019-03-26T18:33:12.688Z,3.33
2019-03-26T18:35:43.025Z,3.73
2019-03-26T18:38:14.835Z,3.40
2019-03-26T18:40:44.487Z,3.97
2019-03-26T18:43:16.455Z,3.35
2019-03-26T18:45:46.115Z,5.30
2019-03-26T18:48:15.719Z,3.90
2019-03-26T18:50:47.098Z,3.22
2019-03-26T18:53:17.655Z,4.28
2019-03-26T18:55:48.674Z,3.60
2019-03-26T18:58:18.356Z,4.00
2019-03-26T19:00:47.726Z,3.80
2019-03-26T19:03:17.741Z,3.70
2019-03-26T19:05:47.357Z,3.07
2019-03-26T19:08:17.720Z,4.37
2019-03-26T19:10:47.649Z,3.80
2019-03-26T19:13:20.097Z,3.90
2019-03-26T19:15:49.748Z,3.50
2019-03-26T19:18:19.427Z,3.60
2019-03-26T19:21:01.484Z,3.83
2019-03-26T19:23:19.932Z,3.97
2019-03-26T19:25:51.935Z,3.60
2019-03-26T19:28:21.616Z,3.47
2019-03-26T19:30:50.988Z,3.70
2019-03-26T19:33:20.670Z,4.37
2019-03-26T19:35:50.928Z,3.75
2019-03-26T19:38:20.495Z,2.63
2019-03-26T19:40:49.853Z,3.77
2019-03-26T19:43:19.536Z,4.17
2019-03-26T19:45:49.167Z,3.83
2019-03-26T19:48:19.073Z,3.83
2019-03-26T19:50:48.632Z,3.90
2019-03-26T19:53:18.002Z,4.30
2019-03-26T19:55:47.656Z,4.10
2019-03-26T19:58:18.002Z,3.95
2019-03-26T20:00:47.396Z,4.20
2019-03-26T20:03:16.733Z,4.47
2019-03-26T20:05:46.375Z,4.25
2019-03-26T20:08:15.741Z,4.87
2019-03-26T20:10:45.135Z,4.40
2019-03-26T20:13:24.148Z,4.40
2019-03-26T20:15:45.948Z,4.13
2019-03-26T20:18:15.652Z,4.80
2019-03-26T20:20:45.025Z,4.73
2019-03-26T20:23:14.745Z,4.80
2019-03-26T20:25:44.109Z,5.83
2019-03-26T20:28:13.673Z,5.00
2019-03-26T20:30:43.048Z,6.27
2019-03-26T20:33:12.692Z,4.20
2019-03-26T20:35:42.319Z,5.00
2019-03-26T20:38:12.812Z,4.63
2019-03-26T20:40:42.245Z,5.50
2019-03-26T20:43:11.684Z,4.20
2019-03-26T20:45:41.394Z,4.60
2019-03-26T20:48:10.765Z,5.10
2019-03-26T20:50:40.471Z,4.22
2019-03-26T20:53:09.836Z,5.10
2019-03-26T20:55:39.206Z,4.70
2019-03-26T20:58:09.533Z,4.73
2019-03-26T21:00:40.552Z,5.30
2019-03-26T21:03:09.929Z,5.20
2019-03-26T21:05:39.787Z,4.17
2019-03-26T21:08:09.162Z,4.70
2019-03-26T21:10:38.755Z,4.43
2019-03-26T21:13:08.157Z,5.03
2019-03-26T21:15:37.801Z,5.07
2019-03-26T21:18:07.167Z,4.40
2019-03-26T21:20:36.674Z,4.77
2019-03-26T21:23:06.325Z,4.50
2019-03-26T21:25:36.033Z,4.80
2019-03-26T21:28:05.709Z,5.40
2019-03-26T21:30:35.073Z,4.58
2019-03-26T21:33:05.026Z,4.40
2019-03-26T21:35:34.746Z,5.27
2019-03-26T21:38:05.500Z,3.80
2019-03-26T21:40:35.176Z,4.92
2019-03-26T21:43:04.782Z,4.90
2019-03-26T21:45:35.698Z,3.50
2019-03-26T21:48:05.988Z,4.50
2019-03-26T21:50:35.953Z,2.60
2019-03-26T21:53:05.309Z,4.43
2019-03-26T21:55:36.598Z,4.07
2019-03-26T21:58:07.240Z,4.47
2019-03-26T22:00:36.823Z,4.90
2019-03-26T22:03:07.826Z,4.60
2019-03-26T22:05:37.194Z,4.40
2019-03-26T22:08:06.858Z,4.37
2019-03-26T22:10:36.220Z,4.10
2019-03-26T22:13:05.879Z,4.73
2019-03-26T22:15:36.895Z,5.00
2019-03-26T22:18:06.261Z,4.33
2019-03-26T22:20:35.843Z,4.97
2019-03-26T22:23:05.414Z,4.70
2019-03-26T22:25:35.016Z,6.13
2019-03-26T22:28:04.690Z,5.27
2019-03-26T22:30:34.074Z,5.60
2019-03-26T22:33:03.738Z,4.70
2019-03-26T22:35:33.382Z,6.17
2019-03-26T22:38:03.978Z,4.40
2019-03-26T22:40:33.339Z,4.63
2019-03-26T22:43:03.544Z,5.13
2019-03-26T22:45:36.177Z,6.05
2019-03-26T22:48:05.838Z,6.55
2019-03-26T22:50:35.202Z,5.23
2019-03-26T22:53:05.118Z,5.70
2019-03-26T22:55:34.795Z,5.95
2019-03-26T22:58:04.428Z,5.10
2019-03-26T23:00:35.745Z,5.17
2019-03-26T23:03:06.999Z,6.07
2019-03-26T23:05:37.390Z,5.30
2019-03-26T23:08:07.062Z,5.45
2019-03-26T23:10:36.432Z,8.30
2019-03-26T23:13:05.961Z,5.77
2019-03-26T23:15:35.428Z,6.20
2019-03-26T23:18:04.873Z,7.07
2019-03-26T23:20:34.526Z,7.12
2019-03-26T23:23:05.485Z,6.10
2019-03-26T23:25:36.210Z,6.62
2019-03-26T23:28:05.593Z,7.20
2019-03-26T23:30:38.240Z,7.00
2019-03-26T23:33:07.919Z,6.22
2019-03-26T23:35:37.291Z,6.23
2019-03-26T23:38:06.674Z,7.33
2019-03-26T23:40:36.587Z,6.70
2019-03-26T23:43:06.044Z,7.50
2019-03-26T23:45:35.430Z,7.10
2019-03-26T23:48:05.027Z,6.93
2019-03-26T23:50:34.396Z,7.87
2019-03-26T23:53:06.382Z,6.83
2019-03-26T23:55:37.019Z,7.65
2019-03-26T23:58:06.236Z,7.77
